To NAV CANADA Home Page Login to a new session Search on AWWS site Disclaimer Vers la page française équivalente Tips FAQ What's new on the site To the Forecasts and Observations / NOTAM section To "File a Flight Plan" website Publications and other links Update of the User's profile FIC Telephone Numbers My Weather Data Folder Route Weather Data Regional Weather Data Local Weather Data To the Forecasts and Observations / NOTAM section
Request Generated 11/13/2018 at 18:18:16 UTC . Weather information available at that time is displayed.

METAR/TAF

LOURDES-DE-BLANC-SABLON/QC    

METAR CYBX 131800Z 27008KT 15SM FEW030 SCT250 M00/M06 A3008 RMK SC2CI1 SLP190=
METAR CYBX 131700Z 28009KT 15SM FEW025 FEW250 M00/M07 A3007 RMK SC1CI1 SLP187=
METAR CYBX 131600Z 28006KT 240V310 15SM FEW025 M01/M07 A3006 RMK SC1 SLP185=

TAF CYBX 131338Z 1314/1402 30010G20KT P6SM FEW025
FM131800 27012KT P6SM SCT020 TEMPO 1318/1320 BKN020
FM132000 27010KT P6SM SCT020 BKN030
RMK NXT FCST BY 132000Z=
Your time UTC time
Weather data provided by Environment Canada and NAV CANADA